createdAt,value
2024-03-02T17:57:31.676Z,55.90
2024-03-02T17:58:34.219Z,52.83
2024-03-02T17:59:38.618Z,45.53
2024-03-02T18:00:42.303Z,63.78
2024-03-02T18:01:44.789Z,52.72
2024-03-02T18:02:47.132Z,64.22
2024-03-02T18:03:50.074Z,95.72
2024-03-02T18:04:52.484Z,84.28
2024-03-02T18:05:54.787Z,76.28
2024-03-02T18:06:59.724Z,54.10
2024-03-02T18:08:02.502Z,49.60
2024-03-02T18:09:04.827Z,47.45
2024-03-02T18:10:08.320Z,38.95
2024-03-02T18:11:10.840Z,38.65
2024-03-02T18:12:13.486Z,36.55
2024-03-02T18:13:16.432Z,33.13
2024-03-02T18:14:19.365Z,35.42
2024-03-02T18:15:21.679Z,34.13
2024-03-02T18:16:24.083Z,31.67
2024-03-02T18:17:26.615Z,28.35
2024-03-02T18:18:29.308Z,30.13
2024-03-02T18:19:32.880Z,28.33
2024-03-02T18:20:35.625Z,37.33
2024-03-02T18:21:38.083Z,32.78
2024-03-02T18:22:40.989Z,36.88
2024-03-02T18:23:43.445Z,38.25
2024-03-02T18:24:46.857Z,38.72
2024-03-02T18:25:49.354Z,38.38
2024-03-02T18:26:52.027Z,39.10
2024-03-02T18:27:54.581Z,38.13
2024-03-02T18:28:56.992Z,36.95
2024-03-02T18:29:59.989Z,36.55
2024-03-02T18:31:02.755Z,33.50
2024-03-02T18:32:05.877Z,33.78
2024-03-02T18:33:08.503Z,30.52
2024-03-02T18:34:11.013Z,32.13
2024-03-02T18:35:13.369Z,29.85
2024-03-02T18:36:15.800Z,29.63
2024-03-02T18:37:22.943Z,29.83
2024-03-02T18:38:25.506Z,29.63
2024-03-02T18:39:27.879Z,32.25
2024-03-02T18:40:30.232Z,29.75
2024-03-02T18:41:32.969Z,37.28
2024-03-02T18:42:35.849Z,60.28
2024-03-02T18:43:38.263Z,49.25
2024-03-02T18:44:42.393Z,133.23
2024-03-02T18:45:44.836Z,101.72
2024-03-02T18:46:49.797Z,45.42
2024-03-02T18:47:52.633Z,22.88
2024-03-02T18:48:55.119Z,21.35
2024-03-02T18:49:58.526Z,59.25
2024-03-02T18:51:07.220Z,20.55
2024-03-02T18:52:09.624Z,19.90
2024-03-02T18:53:13.984Z,55.10
2024-03-02T18:54:17.454Z,87.57
2024-03-02T18:55:20.231Z,50.63
2024-03-02T18:56:22.922Z,21.42
2024-03-02T18:57:25.241Z,17.63
2024-03-02T18:58:27.882Z,21.50
2024-03-02T18:59:31.724Z,20.48
2024-03-02T19:00:34.331Z,24.30
2024-03-02T19:01:36.828Z,19.58
2024-03-02T19:02:39.333Z,27.42
2024-03-02T19:03:41.797Z,19.77
2024-03-02T19:04:44.218Z,21.75
2024-03-02T19:05:46.523Z,45.00
2024-03-02T19:06:49.062Z,23.50
2024-03-02T19:07:51.382Z,21.40
2024-03-02T19:08:53.712Z,21.98
2024-03-02T19:09:56.374Z,28.33
2024-03-02T19:10:58.875Z,22.70
2024-03-02T19:12:01.184Z,27.13
2024-03-02T19:13:03.633Z,27.00
2024-03-02T19:14:06.158Z,24.20
2024-03-02T19:15:08.807Z,21.48
2024-03-02T19:16:15.113Z,22.33
2024-03-02T19:17:17.527Z,21.35
2024-03-02T19:18:19.850Z,18.98
2024-03-02T19:19:22.484Z,19.90
2024-03-02T19:20:24.916Z,20.73
2024-03-02T19:21:27.350Z,19.55
2024-03-02T19:22:31.847Z,19.35
2024-03-02T19:23:40.031Z,17.15
2024-03-02T19:24:45.978Z,16.30
2024-03-02T19:25:48.604Z,16.45
2024-03-02T19:26:51.044Z,14.88
2024-03-02T19:27:53.462Z,16.50
2024-03-02T19:28:55.869Z,15.88
2024-03-02T19:29:58.329Z,18.38
2024-03-02T19:31:00.711Z,20.80
2024-03-02T19:32:08.389Z,18.67
2024-03-02T19:33:15.807Z,18.73
2024-03-02T19:34:24.063Z,17.00
2024-03-02T19:35:27.667Z,16.42
2024-03-02T19:36:30.118Z,14.70
2024-03-02T19:37:32.510Z,15.82
2024-03-02T19:38:36.293Z,19.42
2024-03-02T19:39:43.223Z,19.23
2024-03-02T19:40:45.642Z,18.83
2024-03-02T19:41:47.964Z,17.88
2024-03-02T19:42:50.335Z,16.25
2024-03-02T19:43:52.693Z,17.27
2024-03-02T19:44:55.405Z,16.63
2024-03-02T19:45:57.754Z,16.75
2024-03-02T19:47:00.948Z,16.60
2024-03-02T19:48:03.794Z,17.52
2024-03-02T19:49:06.227Z,16.98
2024-03-02T19:50:09.622Z,16.70
2024-03-02T19:51:12.632Z,15.77
2024-03-02T19:52:15.865Z,16.45
2024-03-02T19:53:18.261Z,18.45
2024-03-02T19:54:20.618Z,16.55
2024-03-02T19:55:30.395Z,16.92
2024-03-02T19:56:34.434Z,16.08
2024-03-02T19:57:42.211Z,14.00
2024-03-02T19:58:44.842Z,13.32
2024-03-02T19:59:47.799Z,13.63
2024-03-02T20:00:50.292Z,13.13
2024-03-02T20:01:52.846Z,11.75
2024-03-02T20:02:55.349Z,11.07
2024-03-02T20:03:57.769Z,11.93
2024-03-02T20:05:00.369Z,10.70
2024-03-02T20:06:02.790Z,10.32
2024-03-02T20:07:05.426Z,15.02
2024-03-02T20:08:11.023Z,20.23
2024-03-02T20:09:13.604Z,20.38
2024-03-02T20:10:16.555Z,21.17
2024-03-02T20:11:19.100Z,21.27
2024-03-02T20:12:21.555Z,23.40
2024-03-02T20:13:24.191Z,20.27
2024-03-02T20:14:26.775Z,20.00
2024-03-02T20:15:29.093Z,19.67
2024-03-02T20:16:31.507Z,17.70
2024-03-02T20:17:34.029Z,18.33
2024-03-02T20:18:36.783Z,17.45
2024-03-02T20:19:42.490Z,16.33
2024-03-02T20:20:44.840Z,17.02
2024-03-02T20:21:47.251Z,15.73
2024-03-02T20:22:49.616Z,16.13
2024-03-02T20:23:51.984Z,15.50
2024-03-02T20:24:54.372Z,13.77
2024-03-02T20:25:59.036Z,13.43
2024-03-02T20:27:01.482Z,15.25
2024-03-02T20:28:05.105Z,13.40
2024-03-02T20:29:07.447Z,13.30
2024-03-02T20:30:10.975Z,17.42
2024-03-02T20:31:15.433Z,17.63
2024-03-02T20:32:20.292Z,17.10
2024-03-02T20:33:23.427Z,16.02
2024-03-02T20:34:26.456Z,17.45
2024-03-02T20:35:29.304Z,18.05
2024-03-02T20:36:31.708Z,17.20
2024-03-02T20:37:34.207Z,17.92
2024-03-02T20:38:36.822Z,16.27
2024-03-02T20:39:40.101Z,16.52
2024-03-02T20:40:45.604Z,18.30
2024-03-02T20:41:48.831Z,21.77
2024-03-02T20:42:51.200Z,21.17
2024-03-02T20:43:53.606Z,19.73
2024-03-02T20:44:55.984Z,20.52
2024-03-02T20:46:00.413Z,21.05
2024-03-02T20:47:02.795Z,21.85
2024-03-02T20:48:05.464Z,18.35
2024-03-02T20:49:07.956Z,21.00
2024-03-02T20:50:10.568Z,23.30
2024-03-02T20:51:12.925Z,21.58
2024-03-02T20:52:15.417Z,23.10
2024-03-02T20:53:17.878Z,20.42
2024-03-02T20:54:20.220Z,21.27
2024-03-02T20:55:22.626Z,22.35
2024-03-02T20:56:27.381Z,21.65
2024-03-02T20:57:30.326Z,23.50
2024-03-02T20:58:32.690Z,21.52
2024-03-02T20:59:35.288Z,22.10
2024-03-02T21:00:37.666Z,22.45
2024-03-02T21:01:40.167Z,22.42
2024-03-02T21:02:42.602Z,20.77
2024-03-02T21:03:45.597Z,20.75
2024-03-02T21:04:48.837Z,20.95
2024-03-02T21:05:51.276Z,21.65
2024-03-02T21:06:53.735Z,21.70
2024-03-02T21:07:56.266Z,21.55
2024-03-02T21:08:58.769Z,21.05
2024-03-02T21:10:01.457Z,20.77
2024-03-02T21:11:04.886Z,21.83
2024-03-02T21:12:09.736Z,22.75
2024-03-02T21:13:12.242Z,22.25
2024-03-02T21:14:14.935Z,21.52
2024-03-02T21:15:17.731Z,21.83
2024-03-02T21:16:20.155Z,21.10
2024-03-02T21:17:23.346Z,20.83
2024-03-02T21:18:25.840Z,20.27
2024-03-02T21:19:28.205Z,20.63
2024-03-02T21:20:30.534Z,21.70
2024-03-02T21:21:32.936Z,20.50
2024-03-02T21:22:37.133Z,22.75
2024-03-02T21:23:39.483Z,20.63
2024-03-02T21:24:46.915Z,19.80
2024-03-02T21:25:49.407Z,20.17
2024-03-02T21:26:51.748Z,20.48
2024-03-02T21:27:54.582Z,23.60
2024-03-02T21:28:57.027Z,21.63
2024-03-02T21:30:00.645Z,21.17
2024-03-02T21:31:03.645Z,20.73
2024-03-02T21:32:06.407Z,21.85
2024-03-02T21:33:08.813Z,21.65
2024-03-02T21:34:11.295Z,22.10
2024-03-02T21:35:13.682Z,21.75
2024-03-02T21:36:15.968Z,23.25
2024-03-02T21:37:18.395Z,21.17
2024-03-02T21:38:20.890Z,21.27
2024-03-02T21:39:32.081Z,21.50
2024-03-02T21:40:41.751Z,21.52
2024-03-02T21:41:44.093Z,22.00
2024-03-02T21:42:46.563Z,20.30
2024-03-02T21:43:48.998Z,21.70
2024-03-02T21:44:51.617Z,21.55
2024-03-02T21:45:54.105Z,21.58
2024-03-02T21:46:56.488Z,23.67
2024-03-02T21:47:58.965Z,22.83
2024-03-02T21:49:01.423Z,23.38
2024-03-02T21:50:05.566Z,23.83
2024-03-02T21:51:08.628Z,24.45
2024-03-02T21:52:11.131Z,30.40
2024-03-02T21:53:14.213Z,23.17
2024-03-02T21:54:16.532Z,33.45
2024-03-02T21:55:19.017Z,27.33
2024-03-02T21:56:21.490Z,37.40
2024-03-02T21:57:26.102Z,25.83
2024-03-02T21:58:28.475Z,28.80
2024-03-02T21:59:30.955Z,22.17
2024-03-02T22:00:35.297Z,22.15
2024-03-02T22:01:38.370Z,21.45
2024-03-02T22:02:41.178Z,21.20
2024-03-02T22:03:46.554Z,21.48
2024-03-02T22:04:49.077Z,22.20
2024-03-02T22:05:52.155Z,30.42
2024-03-02T22:06:55.348Z,21.00
2024-03-02T22:07:58.323Z,22.17
2024-03-02T22:09:00.671Z,23.00
2024-03-02T22:10:03.395Z,22.55
2024-03-02T22:11:06.017Z,22.25
2024-03-02T22:12:08.455Z,21.17
2024-03-02T22:13:10.965Z,23.92
2024-03-02T22:14:13.371Z,21.98
2024-03-02T22:15:15.922Z,21.23
2024-03-02T22:16:18.462Z,21.73
2024-03-02T22:17:20.902Z,20.92
2024-03-02T22:18:23.316Z,22.42
2024-03-02T22:19:25.769Z,23.00
2024-03-02T22:20:28.104Z,21.33
2024-03-02T22:21:30.620Z,20.67
2024-03-02T22:22:32.981Z,21.00
2024-03-02T22:23:38.869Z,21.02
2024-03-02T22:24:42.938Z,22.23
2024-03-02T22:25:45.650Z,21.27
2024-03-02T22:26:48.068Z,20.50
2024-03-02T22:27:56.189Z,20.02
2024-03-02T22:28:58.765Z,21.52
2024-03-02T22:30:01.106Z,20.92
2024-03-02T22:31:03.641Z,21.23
2024-03-02T22:32:06.919Z,21.58
2024-03-02T22:33:09.432Z,22.58
2024-03-02T22:34:12.249Z,20.15
2024-03-02T22:35:14.793Z,19.27
2024-03-02T22:36:17.184Z,22.13
2024-03-02T22:37:19.736Z,20.40
2024-03-02T22:38:22.163Z,21.17
2024-03-02T22:39:24.731Z,19.90
2024-03-02T22:40:27.168Z,20.42
2024-03-02T22:41:29.722Z,20.80
2024-03-02T22:42:33.832Z,19.13
2024-03-02T22:43:36.985Z,20.77
2024-03-02T22:44:39.373Z,19.27
2024-03-02T22:45:41.751Z,19.65
2024-03-02T22:46:44.109Z,20.27
2024-03-02T22:47:46.692Z,19.48
2024-03-02T22:48:49.191Z,16.88
2024-03-02T22:49:56.837Z,17.40
2024-03-02T22:50:59.823Z,16.35
2024-03-02T22:52:02.221Z,19.63
2024-03-02T22:53:04.778Z,18.48
2024-03-02T22:54:07.186Z,18.55
2024-03-02T22:55:11.498Z,18.17
2024-03-02T22:56:13.900Z,17.30
2024-03-02T22:57:18.974Z,17.20
2024-03-02T22:58:21.481Z,17.27
2024-03-02T22:59:24.268Z,15.10
2024-03-02T23:00:37.089Z,15.02
2024-03-02T23:01:42.025Z,14.13
2024-03-02T23:02:44.640Z,15.82
2024-03-02T23:03:47.125Z,14.82
2024-03-02T23:04:49.566Z,14.40
2024-03-02T23:05:52.007Z,14.65
2024-03-02T23:06:54.410Z,15.23
2024-03-02T23:07:57.641Z,16.38
2024-03-02T23:09:00.082Z,15.15
2024-03-02T23:10:02.493Z,14.45
2024-03-02T23:11:06.029Z,14.43
2024-03-02T23:12:08.395Z,14.73
2024-03-02T23:13:10.897Z,15.30
2024-03-02T23:14:13.462Z,14.93
2024-03-02T23:15:16.126Z,14.98
2024-03-02T23:16:18.554Z,14.68
2024-03-02T23:17:20.893Z,16.55
2024-03-02T23:18:23.507Z,15.07
2024-03-02T23:19:25.961Z,21.60
2024-03-02T23:20:28.321Z,20.27
2024-03-02T23:21:30.717Z,19.60
2024-03-02T23:22:33.076Z,19.10
2024-03-02T23:23:35.477Z,19.13
2024-03-02T23:24:37.967Z,18.48
2024-03-02T23:25:40.309Z,18.23
2024-03-02T23:26:43.852Z,18.05
2024-03-02T23:27:46.401Z,17.40
2024-03-02T23:28:48.766Z,17.20
2024-03-02T23:29:51.219Z,16.42
2024-03-02T23:30:53.583Z,16.40
2024-03-02T23:31:56.023Z,14.48
2024-03-02T23:32:59.010Z,15.57
2024-03-02T23:34:04.964Z,14.43
2024-03-02T23:35:08.172Z,16.20
2024-03-02T23:36:10.529Z,18.80
2024-03-02T23:37:12.967Z,19.60
2024-03-02T23:38:15.394Z,20.52
2024-03-02T23:39:37.810Z,19.10
2024-03-02T23:41:03.804Z,20.40
2024-03-02T23:42:06.480Z,21.33
2024-03-02T23:43:10.102Z,20.73
2024-03-02T23:44:14.782Z,18.92
2024-03-02T23:45:17.360Z,17.80
2024-03-02T23:46:19.870Z,19.20
2024-03-02T23:47:22.251Z,17.95
2024-03-02T23:48:24.731Z,18.40
2024-03-02T23:49:27.573Z,16.83
2024-03-02T23:50:29.990Z,17.67
2024-03-02T23:51:32.458Z,18.00
2024-03-02T23:52:35.038Z,19.92
2024-03-02T23:53:37.445Z,20.33
2024-03-02T23:54:39.882Z,20.60
2024-03-02T23:55:47.827Z,20.48
2024-03-02T23:56:54.791Z,21.15
2024-03-02T23:57:58.092Z,19.38
2024-03-02T23:59:03.665Z,20.48
